createdAt,value
2023-01-10T00:01:43.166Z,9.16
2023-01-10T00:04:11.144Z,8.64
2023-01-10T00:06:38.946Z,8.94
2023-01-10T00:09:06.716Z,8.74
2023-01-10T00:11:52.115Z,8.37
2023-01-10T00:14:20.026Z,8.28
2023-01-10T00:16:49.203Z,8.35
2023-01-10T00:19:16.985Z,8.10
2023-01-10T00:21:44.693Z,7.88
2023-01-10T00:24:19.782Z,8.28
2023-01-10T00:26:51.860Z,7.94
2023-01-10T00:29:20.677Z,8.52
2023-01-10T00:31:50.212Z,8.13
2023-01-10T00:34:18.348Z,8.73
2023-01-10T00:36:47.815Z,8.29
2023-01-10T00:39:16.211Z,8.33
2023-01-10T00:42:01.450Z,8.28
2023-01-10T00:44:29.182Z,8.28
2023-01-10T00:46:58.289Z,8.60
2023-01-10T00:49:25.984Z,8.42
2023-01-10T00:51:57.993Z,8.12
2023-01-10T00:54:25.821Z,7.94
2023-01-10T00:56:53.519Z,8.34
2023-01-10T00:59:21.299Z,8.34
2023-01-10T01:01:49.254Z,8.15
2023-01-10T01:04:18.423Z,8.29
2023-01-10T01:06:47.664Z,7.93
2023-01-10T01:09:15.857Z,8.05
2023-01-10T01:11:43.986Z,8.26
2023-01-10T01:14:11.751Z,8.30
2023-01-10T01:16:39.440Z,8.17
2023-01-10T01:19:07.176Z,8.19
2023-01-10T01:21:36.229Z,8.62
2023-01-10T01:24:04.107Z,8.55
2023-01-10T01:26:31.992Z,8.51
2023-01-10T01:28:59.781Z,8.16
2023-01-10T01:31:27.680Z,8.39
2023-01-10T01:33:55.630Z,8.23
2023-01-10T01:36:23.347Z,8.26
2023-01-10T01:38:52.440Z,8.64
2023-01-10T01:41:37.803Z,7.87
2023-01-10T01:44:07.691Z,8.13
2023-01-10T01:46:38.084Z,8.25
2023-01-10T01:49:13.073Z,8.37
2023-01-10T01:51:40.924Z,8.88
2023-01-10T01:54:13.022Z,8.61
2023-01-10T01:56:44.651Z,8.42
2023-01-10T01:59:15.110Z,8.42
2023-01-10T02:01:44.631Z,7.95
2023-01-10T02:04:18.091Z,8.10
2023-01-10T02:06:47.096Z,7.88
2023-01-10T02:09:21.967Z,8.16
2023-01-10T02:11:50.029Z,8.11
2023-01-10T02:14:18.646Z,8.44
2023-01-10T02:16:46.543Z,8.51
2023-01-10T02:19:25.138Z,8.65
2023-01-10T02:22:41.772Z,8.79
2023-01-10T02:25:35.516Z,8.42
2023-01-10T02:28:26.277Z,7.93
2023-01-10T02:31:20.755Z,8.06
2023-01-10T02:34:00.268Z,8.07
2023-01-10T02:36:39.455Z,7.81
2023-01-10T02:39:17.326Z,8.55
2023-01-10T02:41:52.451Z,8.48
2023-01-10T02:44:25.655Z,8.40
2023-01-10T02:46:53.518Z,8.06
2023-01-10T02:49:22.658Z,8.44
2023-01-10T02:51:50.377Z,8.65
2023-01-10T02:54:20.954Z,8.27
2023-01-10T02:57:26.745Z,8.38
2023-01-10T03:00:20.239Z,8.34
2023-01-10T03:03:14.187Z,7.89
2023-01-10T03:06:07.705Z,8.33
2023-01-10T03:08:40.578Z,8.42
2023-01-10T03:11:10.252Z,8.44
2023-01-10T03:13:44.404Z,8.66
2023-01-10T03:16:16.855Z,8.65
2023-01-10T03:18:49.261Z,8.52
2023-01-10T03:21:21.368Z,8.59
2023-01-10T03:23:51.857Z,8.01
2023-01-10T03:26:31.230Z,8.31
2023-01-10T03:29:05.090Z,8.38
2023-01-10T03:31:40.188Z,8.07
2023-01-10T03:34:08.193Z,7.53
2023-01-10T03:36:46.714Z,7.52
2023-01-10T03:39:20.337Z,7.63
2023-01-10T03:41:54.262Z,7.59
2023-01-10T03:44:46.234Z,7.44
2023-01-10T03:47:20.313Z,7.71
2023-01-10T03:49:51.545Z,7.47
2023-01-10T03:52:21.804Z,7.60
2023-01-10T03:54:49.663Z,7.74
2023-01-10T03:57:23.847Z,7.49
2023-01-10T03:59:55.101Z,7.76
2023-01-10T04:02:23.149Z,8.03
2023-01-10T04:04:51.192Z,7.97
2023-01-10T04:07:20.392Z,7.68
2023-01-10T04:09:48.236Z,7.97
2023-01-10T04:12:16.276Z,7.88
2023-01-10T04:14:45.449Z,8.03
2023-01-10T04:17:13.477Z,8.08
2023-01-10T04:19:41.864Z,8.17
2023-01-10T04:22:09.699Z,8.16
2023-01-10T04:24:39.494Z,8.03
2023-01-10T04:27:07.649Z,8.11
2023-01-10T04:29:35.469Z,7.97
2023-01-10T04:32:03.218Z,8.54
2023-01-10T04:34:31.073Z,8.16
2023-01-10T04:36:58.850Z,7.99
2023-01-10T04:39:26.781Z,8.35
2023-01-10T04:41:56.051Z,8.46
2023-01-10T04:44:23.982Z,8.29
2023-01-10T04:46:51.968Z,8.09
2023-01-10T04:49:19.965Z,8.10
2023-01-10T04:51:47.982Z,8.33
2023-01-10T04:54:16.175Z,7.97
2023-01-10T04:56:44.226Z,8.01
2023-01-10T04:59:13.358Z,7.98
2023-01-10T05:01:41.408Z,8.31
2023-01-10T05:04:10.091Z,8.10
2023-01-10T05:06:40.062Z,7.48
2023-01-10T05:09:08.060Z,7.60
2023-01-10T05:11:37.841Z,7.76
2023-01-10T05:14:05.875Z,7.96
2023-01-10T05:16:35.308Z,7.86
2023-01-10T05:19:03.402Z,7.73
2023-01-10T05:21:31.452Z,7.51
2023-01-10T05:23:59.263Z,7.38
2023-01-10T05:26:27.089Z,7.37
2023-01-10T05:28:54.918Z,7.42
2023-01-10T05:31:23.113Z,7.46
2023-01-10T05:33:53.329Z,7.45
2023-01-10T05:36:21.378Z,7.45
2023-01-10T05:38:49.297Z,7.54
2023-01-10T05:41:17.116Z,7.40
2023-01-10T05:43:44.859Z,7.32
2023-01-10T05:46:12.819Z,7.47
2023-01-10T05:48:40.660Z,7.54
2023-01-10T05:51:09.963Z,7.59
2023-01-10T05:53:37.829Z,7.44
2023-01-10T05:56:07.715Z,7.61
2023-01-10T05:58:35.819Z,7.44
2023-01-10T06:01:04.311Z,7.59
2023-01-10T06:03:32.863Z,7.59
2023-01-10T06:06:01.150Z,7.67
2023-01-10T06:08:31.429Z,7.59
2023-01-10T06:11:00.356Z,7.46
2023-01-10T06:13:29.372Z,7.37
2023-01-10T06:15:59.448Z,7.48
2023-01-10T06:18:28.765Z,7.29
2023-01-10T06:20:57.866Z,7.38
2023-01-10T06:23:26.423Z,7.22
2023-01-10T06:25:56.213Z,7.21
2023-01-10T06:28:30.739Z,6.90
2023-01-10T06:30:59.515Z,7.02
2023-01-10T06:33:30.840Z,7.10
2023-01-10T06:35:58.878Z,7.07
2023-01-10T06:38:26.797Z,7.06
2023-01-10T06:40:56.125Z,7.17
2023-01-10T06:43:25.831Z,7.12
2023-01-10T06:45:54.046Z,6.93
2023-01-10T06:48:22.314Z,6.78
2023-01-10T06:50:51.419Z,7.16
2023-01-10T06:53:19.411Z,7.25
2023-01-10T06:55:50.615Z,7.35
2023-01-10T06:58:19.815Z,7.86
2023-01-10T07:00:48.041Z,7.60
2023-01-10T07:03:16.097Z,7.64
2023-01-10T07:05:44.171Z,7.63
2023-01-10T07:08:12.080Z,7.70
2023-01-10T07:10:41.696Z,7.49
2023-01-10T07:13:09.839Z,7.77
2023-01-10T07:15:39.076Z,8.03
2023-01-10T07:18:06.869Z,7.52
2023-01-10T07:20:34.758Z,7.95
2023-01-10T07:23:02.832Z,7.94
2023-01-10T07:25:31.188Z,7.75
2023-01-10T07:27:59.354Z,7.60
2023-01-10T07:30:27.331Z,7.64
2023-01-10T07:32:57.710Z,7.53
2023-01-10T07:35:27.642Z,7.69
2023-01-10T07:37:55.445Z,7.63
2023-01-10T07:40:23.407Z,7.75
2023-01-10T07:42:51.380Z,8.02
2023-01-10T07:45:19.225Z,8.10
2023-01-10T07:47:46.929Z,8.25
2023-01-10T07:50:18.110Z,8.07
2023-01-10T07:52:46.072Z,8.22
2023-01-10T07:55:13.957Z,7.96
2023-01-10T07:57:41.861Z,8.13
2023-01-10T08:00:12.198Z,8.09
2023-01-10T08:02:40.057Z,8.05
2023-01-10T08:05:08.522Z,8.45
2023-01-10T08:07:38.411Z,8.44
2023-01-10T08:10:07.464Z,8.29
2023-01-10T08:12:35.448Z,8.06
2023-01-10T08:15:03.292Z,8.44
2023-01-10T08:17:34.421Z,8.33
2023-01-10T08:20:02.693Z,8.57
2023-01-10T08:22:30.474Z,8.27
2023-01-10T08:24:59.668Z,8.41
2023-01-10T08:27:27.449Z,8.49
2023-01-10T08:29:55.216Z,8.45
2023-01-10T08:32:23.544Z,8.61
2023-01-10T08:34:51.428Z,8.20
2023-01-10T08:37:19.230Z,8.36
2023-01-10T08:39:47.063Z,8.25
2023-01-10T08:42:18.672Z,8.47
2023-01-10T08:44:46.902Z,8.38
2023-01-10T08:47:15.111Z,8.38
2023-01-10T08:49:43.085Z,8.62
2023-01-10T08:52:11.090Z,8.64
2023-01-10T08:54:39.179Z,8.63
2023-01-10T08:57:07.034Z,8.70
2023-01-10T08:59:36.700Z,8.84
2023-01-10T09:02:05.173Z,8.90
2023-01-10T09:04:33.276Z,8.96
2023-01-10T09:07:01.283Z,8.73
2023-01-10T09:09:29.301Z,9.17
2023-01-10T09:11:57.540Z,9.18
2023-01-10T09:14:25.744Z,9.34
2023-01-10T09:16:54.967Z,9.40
2023-01-10T09:19:22.855Z,9.15
2023-01-10T09:21:50.705Z,9.16
2023-01-10T09:24:18.504Z,9.32
2023-01-10T09:26:46.390Z,9.08
2023-01-10T09:29:14.403Z,8.85
2023-01-10T09:31:42.392Z,9.32
2023-01-10T09:34:14.986Z,8.77
2023-01-10T09:36:42.953Z,8.87
2023-01-10T09:39:10.909Z,8.87
2023-01-10T09:41:57.210Z,8.91
2023-01-10T09:44:38.498Z,8.69
2023-01-10T09:47:22.379Z,8.56
2023-01-10T09:50:01.218Z,8.96
2023-01-10T09:52:33.969Z,9.10
2023-01-10T09:55:17.897Z,9.30
2023-01-10T09:57:46.605Z,9.37
2023-01-10T10:00:21.157Z,9.03
2023-01-10T10:02:53.565Z,9.18
2023-01-10T10:05:24.544Z,9.08
2023-01-10T10:07:56.115Z,8.83
2023-01-10T10:10:27.170Z,8.66
2023-01-10T10:13:14.005Z,9.24
2023-01-10T10:15:50.767Z,8.74
2023-01-10T10:18:33.600Z,9.07
2023-01-10T10:21:09.543Z,8.86
2023-01-10T10:24:11.116Z,8.77
2023-01-10T10:26:47.816Z,9.07
2023-01-10T10:29:31.593Z,9.07
2023-01-10T10:32:11.737Z,9.58
2023-01-10T10:34:43.035Z,9.65
2023-01-10T10:37:21.363Z,8.77
2023-01-10T10:39:53.383Z,8.81
2023-01-10T10:42:21.356Z,9.18
2023-01-10T10:44:56.347Z,9.18
2023-01-10T10:47:29.078Z,9.54
2023-01-10T10:50:06.997Z,9.45
2023-01-10T10:52:37.700Z,9.89
2023-01-10T10:55:08.115Z,9.10
2023-01-10T10:57:43.450Z,9.18
2023-01-10T11:00:22.687Z,9.55
2023-01-10T11:02:54.362Z,9.55
2023-01-10T11:05:30.576Z,8.92
2023-01-10T11:08:04.361Z,9.51
2023-01-10T11:10:36.806Z,9.44
2023-01-10T11:13:07.187Z,9.30
2023-01-10T11:15:43.498Z,9.39
2023-01-10T11:18:16.763Z,9.64
2023-01-10T11:20:50.291Z,9.62
2023-01-10T11:23:41.642Z,9.54
2023-01-10T11:26:11.612Z,9.65
2023-01-10T11:28:39.779Z,9.32
2023-01-10T11:31:08.208Z,9.03
2023-01-10T11:33:37.000Z,9.17
2023-01-10T11:36:07.415Z,9.14
2023-01-10T11:38:37.192Z,9.01
2023-01-10T11:41:06.629Z,9.40
2023-01-10T11:43:36.776Z,9.89
2023-01-10T11:46:13.452Z,9.78
2023-01-10T11:49:04.964Z,9.80
2023-01-10T11:51:38.102Z,9.38
2023-01-10T11:54:12.467Z,9.83
2023-01-10T11:56:41.660Z,9.44
2023-01-10T11:59:12.803Z,10.03
2023-01-10T12:01:44.407Z,9.58
2023-01-10T12:04:16.870Z,9.60
2023-01-10T12:06:46.860Z,9.75
2023-01-10T12:09:36.656Z,9.35
2023-01-10T12:12:07.275Z,9.56
2023-01-10T12:14:36.276Z,9.66
2023-01-10T12:17:06.022Z,9.95
2023-01-10T12:19:34.820Z,9.66
2023-01-10T12:22:08.928Z,9.56
2023-01-10T12:24:44.243Z,9.64
2023-01-10T12:27:15.627Z,9.46
2023-01-10T12:29:48.917Z,9.42
2023-01-10T12:32:22.712Z,9.98
2023-01-10T12:35:00.911Z,9.97
2023-01-10T12:37:36.870Z,10.44
2023-01-10T12:40:16.743Z,9.73
2023-01-10T12:43:12.925Z,10.03
2023-01-10T12:45:45.242Z,10.21
2023-01-10T12:48:23.705Z,9.92
2023-01-10T12:50:55.677Z,9.93
2023-01-10T12:53:31.398Z,9.84
2023-01-10T12:56:05.168Z,9.69
2023-01-10T12:58:43.141Z,9.93
2023-01-10T13:01:14.915Z,9.89
2023-01-10T13:03:44.613Z,9.98
2023-01-10T13:06:22.508Z,9.83
2023-01-10T13:08:52.138Z,9.61
2023-01-10T13:11:26.195Z,9.79
2023-01-10T13:14:00.637Z,9.99
2023-01-10T13:16:36.383Z,10.05
2023-01-10T13:19:23.027Z,9.74
2023-01-10T13:21:52.367Z,9.55
2023-01-10T13:24:22.618Z,9.97
2023-01-10T13:26:54.297Z,10.00
2023-01-10T13:29:24.924Z,10.10
2023-01-10T13:31:57.625Z,9.73
2023-01-10T13:34:33.007Z,9.69
2023-01-10T13:37:04.090Z,9.86
2023-01-10T13:39:35.886Z,9.83
2023-01-10T13:42:44.958Z,10.26
2023-01-10T13:45:24.054Z,10.42
2023-01-10T13:48:06.511Z,10.29
2023-01-10T13:50:58.213Z,10.17
2023-01-10T13:53:59.898Z,10.07
2023-01-10T13:56:39.289Z,10.12
2023-01-10T13:59:31.741Z,10.07
2023-01-10T14:02:19.423Z,10.02
2023-01-10T14:04:50.597Z,9.93
2023-01-10T14:07:28.303Z,9.90
2023-01-10T14:10:04.556Z,9.89
2023-01-10T14:12:36.708Z,10.11
2023-01-10T14:15:22.832Z,9.83
2023-01-10T14:18:01.983Z,9.63
2023-01-10T14:20:35.067Z,9.84
2023-01-10T14:23:06.658Z,9.74
2023-01-10T14:25:36.552Z,9.63
2023-01-10T14:28:06.600Z,9.81
2023-01-10T14:30:40.236Z,9.97
2023-01-10T14:33:14.617Z,9.94
2023-01-10T14:35:46.067Z,9.93
2023-01-10T14:38:20.178Z,9.84
2023-01-10T14:40:53.791Z,9.99
2023-01-10T14:43:26.652Z,9.78
2023-01-10T14:46:02.047Z,10.01
2023-01-10T14:48:32.111Z,9.74
2023-01-10T14:51:25.575Z,9.60
2023-01-10T14:53:57.975Z,9.59
2023-01-10T14:56:28.163Z,9.69
2023-01-10T14:58:56.256Z,9.85
2023-01-10T15:01:28.984Z,9.76
2023-01-10T15:03:58.585Z,9.39
2023-01-10T15:06:26.967Z,9.56
2023-01-10T15:08:59.924Z,9.64
2023-01-10T15:11:30.227Z,9.45
2023-01-10T15:14:04.845Z,9.18
2023-01-10T15:16:37.174Z,9.27
2023-01-10T15:19:05.764Z,9.22
2023-01-10T15:21:33.915Z,9.31
2023-01-10T15:24:01.887Z,9.32
2023-01-10T15:26:34.247Z,9.29
2023-01-10T15:29:13.650Z,9.39
2023-01-10T15:31:44.748Z,9.31
2023-01-10T15:34:19.073Z,9.31
2023-01-10T15:36:51.088Z,9.19
2023-01-10T15:39:22.300Z,8.99
2023-01-10T15:41:56.107Z,8.97
2023-01-10T15:44:34.978Z,8.90
2023-01-10T15:47:04.576Z,9.23
2023-01-10T15:49:33.184Z,9.13
2023-01-10T15:52:01.378Z,9.13
2023-01-10T15:54:31.642Z,8.95
2023-01-10T15:57:07.506Z,8.96
2023-01-10T15:59:39.438Z,8.90
2023-01-10T16:02:22.362Z,8.98
2023-01-10T16:04:52.113Z,8.96
2023-01-10T16:07:25.084Z,9.21
2023-01-10T16:09:58.190Z,8.92
2023-01-10T16:12:46.381Z,8.93
2023-01-10T16:15:20.220Z,9.16
2023-01-10T16:17:50.959Z,8.96
2023-01-10T16:20:21.863Z,8.94
2023-01-10T16:22:51.430Z,9.01
2023-01-10T16:25:25.695Z,9.01
2023-01-10T16:27:56.185Z,8.99
2023-01-10T16:30:25.857Z,8.99
2023-01-10T16:32:57.265Z,8.86
2023-01-10T16:35:26.171Z,8.91
2023-01-10T16:37:56.518Z,8.83
2023-01-10T16:40:27.947Z,9.07
2023-01-10T16:43:14.598Z,8.92
2023-01-10T16:45:42.721Z,8.86
2023-01-10T16:48:11.908Z,8.81
2023-01-10T16:50:39.836Z,8.90
2023-01-10T16:53:08.050Z,9.13
2023-01-10T16:55:41.977Z,8.96
2023-01-10T16:58:10.857Z,8.77
2023-01-10T17:00:40.284Z,8.81
2023-01-10T17:03:16.588Z,8.72
2023-01-10T17:05:44.593Z,8.77
2023-01-10T17:08:17.266Z,8.81
2023-01-10T17:10:48.081Z,8.53
2023-01-10T17:13:20.851Z,8.76
2023-01-10T17:15:48.675Z,8.69
2023-01-10T17:18:19.831Z,8.80
2023-01-10T17:20:47.826Z,8.76
2023-01-10T17:23:15.975Z,8.81
2023-01-10T17:25:44.569Z,8.87
2023-01-10T17:28:13.006Z,8.89
2023-01-10T17:30:40.863Z,8.81
2023-01-10T17:33:11.990Z,8.64
2023-01-10T17:35:42.253Z,8.86
2023-01-10T17:38:12.014Z,8.74
2023-01-10T17:40:41.358Z,8.88
2023-01-10T17:43:11.346Z,8.83
2023-01-10T17:45:40.413Z,8.86
2023-01-10T17:48:08.999Z,8.75
2023-01-10T17:50:37.271Z,9.03
2023-01-10T17:53:06.694Z,8.80
2023-01-10T17:55:34.466Z,8.61
2023-01-10T17:58:03.626Z,8.41
2023-01-10T18:00:32.363Z,8.73
2023-01-10T18:03:02.410Z,8.74
2023-01-10T18:05:32.241Z,8.83
2023-01-10T18:08:01.083Z,8.60
2023-01-10T18:10:30.757Z,8.81
2023-01-10T18:12:58.745Z,8.65
2023-01-10T18:15:27.555Z,8.70
2023-01-10T18:17:55.633Z,8.80
2023-01-10T18:20:23.500Z,8.86
2023-01-10T18:23:08.838Z,8.71
2023-01-10T18:25:38.321Z,8.85
2023-01-10T18:28:06.479Z,8.77
2023-01-10T18:30:34.405Z,8.89
2023-01-10T18:33:02.345Z,8.93
2023-01-10T18:35:30.294Z,8.86
2023-01-10T18:37:58.824Z,8.82
2023-01-10T18:40:26.692Z,8.77
2023-01-10T18:42:57.652Z,8.91
2023-01-10T18:45:27.928Z,8.96
2023-01-10T18:47:57.616Z,8.92
2023-01-10T18:50:28.348Z,9.03
2023-01-10T18:52:56.212Z,9.10
2023-01-10T18:55:24.162Z,8.94
2023-01-10T18:57:52.044Z,8.92
2023-01-10T19:00:22.124Z,9.04
2023-01-10T19:02:50.062Z,9.16
2023-01-10T19:05:18.162Z,9.08
2023-01-10T19:07:46.038Z,9.18
2023-01-10T19:10:13.933Z,9.14
2023-01-10T19:12:42.393Z,9.12
2023-01-10T19:15:11.281Z,9.30
2023-01-10T19:17:40.475Z,8.81
2023-01-10T19:20:10.268Z,8.99
2023-01-10T19:22:38.196Z,9.08
2023-01-10T19:25:06.702Z,9.05
2023-01-10T19:27:34.906Z,8.99
2023-01-10T19:30:02.799Z,9.09
2023-01-10T19:32:31.642Z,9.17
2023-01-10T19:35:01.100Z,8.93
2023-01-10T19:37:29.196Z,9.09
2023-01-10T19:39:57.023Z,9.00
2023-01-10T19:42:26.119Z,8.93
2023-01-10T19:44:54.260Z,8.91
2023-01-10T19:47:22.159Z,9.05
2023-01-10T19:49:51.158Z,8.97
2023-01-10T19:52:20.624Z,9.05
2023-01-10T19:54:48.970Z,9.04
2023-01-10T19:57:17.257Z,8.77
2023-01-10T19:59:47.320Z,8.79
2023-01-10T20:02:15.599Z,8.88
2023-01-10T20:04:43.702Z,8.48
2023-01-10T20:07:11.549Z,8.90
2023-01-10T20:09:41.006Z,8.71
2023-01-10T20:12:12.496Z,8.44
2023-01-10T20:14:40.572Z,8.61
2023-01-10T20:17:09.340Z,8.72
2023-01-10T20:19:37.304Z,8.77
2023-01-10T20:22:05.199Z,8.63
2023-01-10T20:24:33.531Z,8.60
2023-01-10T20:27:04.565Z,8.55
2023-01-10T20:29:33.320Z,8.57
2023-01-10T20:32:02.911Z,8.64
2023-01-10T20:34:30.715Z,8.78
2023-01-10T20:36:59.075Z,8.65
2023-01-10T20:39:26.991Z,8.53
2023-01-10T20:41:54.890Z,8.67
2023-01-10T20:44:26.151Z,8.63
2023-01-10T20:46:55.241Z,8.64
2023-01-10T20:49:23.255Z,8.54
2023-01-10T20:51:53.698Z,8.62
2023-01-10T20:54:21.775Z,8.37
2023-01-10T20:56:49.768Z,8.37
2023-01-10T20:59:17.667Z,8.57
2023-01-10T21:01:47.002Z,8.38
2023-01-10T21:04:14.915Z,8.39
2023-01-10T21:06:43.012Z,8.22
2023-01-10T21:09:11.400Z,8.27
2023-01-10T21:11:56.639Z,8.28
2023-01-10T21:14:27.101Z,8.23
2023-01-10T21:16:56.540Z,8.09
2023-01-10T21:19:24.368Z,8.14
2023-01-10T21:21:52.316Z,8.06
2023-01-10T21:24:22.814Z,7.88
2023-01-10T21:26:50.857Z,7.95
2023-01-10T21:29:19.037Z,7.98
2023-01-10T21:31:46.850Z,8.18
2023-01-10T21:34:16.020Z,7.93
2023-01-10T21:36:43.856Z,7.81
2023-01-10T21:39:11.705Z,7.90
2023-01-10T21:42:11.497Z,7.71
2023-01-10T21:44:39.269Z,7.79
2023-01-10T21:47:07.085Z,7.81
2023-01-10T21:49:36.385Z,7.89
2023-01-10T21:52:04.283Z,7.99
2023-01-10T21:54:32.352Z,8.07
2023-01-10T21:57:00.202Z,7.99
2023-01-10T21:59:27.966Z,8.05
2023-01-10T22:01:56.138Z,8.07
2023-01-10T22:04:23.937Z,8.06
2023-01-10T22:06:53.070Z,8.17
2023-01-10T22:09:20.860Z,8.19
2023-01-10T22:11:48.656Z,8.19
2023-01-10T22:14:16.541Z,8.40
2023-01-10T22:16:44.305Z,8.30
2023-01-10T22:19:13.428Z,8.75
2023-01-10T22:21:41.244Z,8.41
2023-01-10T22:24:11.834Z,8.49
2023-01-10T22:26:39.861Z,8.77
2023-01-10T22:29:07.625Z,8.91
2023-01-10T22:31:35.465Z,8.89
2023-01-10T22:34:03.199Z,8.65
2023-01-10T22:36:30.868Z,8.73
2023-01-10T22:38:58.589Z,8.92
2023-01-10T22:41:28.720Z,8.76
2023-01-10T22:43:57.281Z,8.98
2023-01-10T22:46:25.248Z,8.90
2023-01-10T22:48:53.584Z,9.07
2023-01-10T22:51:22.424Z,8.78
2023-01-10T22:53:50.766Z,8.66
2023-01-10T22:56:18.876Z,8.72
2023-01-10T22:58:48.688Z,8.70
2023-01-10T23:01:17.994Z,8.84
2023-01-10T23:03:46.102Z,9.02
2023-01-10T23:06:15.505Z,9.10
2023-01-10T23:08:43.639Z,9.01
2023-01-10T23:11:13.516Z,8.83
2023-01-10T23:13:42.201Z,8.64
2023-01-10T23:16:14.317Z,8.91
2023-01-10T23:18:42.437Z,8.98
2023-01-10T23:21:10.817Z,9.21
2023-01-10T23:23:38.620Z,8.94
2023-01-10T23:26:08.783Z,8.92
2023-01-10T23:28:38.794Z,9.19
2023-01-10T23:31:07.869Z,9.14
2023-01-10T23:33:37.201Z,9.16
2023-01-10T23:36:05.215Z,9.07
2023-01-10T23:38:33.855Z,8.93
2023-01-10T23:41:01.742Z,9.01
2023-01-10T23:43:29.484Z,8.71
2023-01-10T23:45:57.452Z,8.77
2023-01-10T23:48:25.409Z,8.59
2023-01-10T23:50:54.539Z,8.84
2023-01-10T23:53:22.272Z,8.92
2023-01-10T23:55:50.049Z,8.99
2023-01-10T23:58:18.283Z,8.87
